createdAt,value
2022-08-09T00:02:25.831Z,26.50
2022-08-09T00:12:34.599Z,26.60
2022-08-09T00:22:38.595Z,26.60
2022-08-09T00:32:45.473Z,26.60
2022-08-09T00:44:26.374Z,26.70
2022-08-09T00:53:15.903Z,26.70
2022-08-09T01:03:40.932Z,26.50
2022-08-09T01:14:00.239Z,26.30
2022-08-09T01:24:15.329Z,26.20
2022-08-09T01:34:23.316Z,26.10
2022-08-09T01:44:28.172Z,26.20
2022-08-09T01:54:42.094Z,26.50
2022-08-09T02:04:48.698Z,26.20
2022-08-09T02:14:56.822Z,26.10
2022-08-09T02:25:03.679Z,26.30
2022-08-09T02:35:46.244Z,26.30
2022-08-09T02:45:47.349Z,26.30
2022-08-09T02:55:58.238Z,26.20
2022-08-09T03:06:04.629Z,26.00
2022-08-09T03:16:10.258Z,25.80
2022-08-09T03:26:15.875Z,25.80
2022-08-09T03:36:21.946Z,25.60
2022-08-09T03:46:31.940Z,25.40
2022-08-09T03:56:37.349Z,25.00
2022-08-09T04:06:49.034Z,25.00
2022-08-09T04:16:57.263Z,24.90
2022-08-09T04:27:01.990Z,24.80
2022-08-09T04:37:07.483Z,24.80
2022-08-09T04:47:11.605Z,24.40
2022-08-09T04:57:23.819Z,24.40
2022-08-09T05:07:31.848Z,25.20
2022-08-09T05:18:37.956Z,25.50
2022-08-09T05:28:01.278Z,25.40
2022-08-09T05:38:06.449Z,25.40
2022-08-09T05:48:11.897Z,25.50
2022-08-09T05:58:18.387Z,25.80
2022-08-09T06:08:24.901Z,26.10
2022-08-09T06:18:30.309Z,26.50
2022-08-09T06:28:34.194Z,26.80
2022-08-09T06:38:39.385Z,27.20
2022-08-09T06:48:56.398Z,27.30
2022-08-09T07:00:51.876Z,27.60
2022-08-09T07:09:54.874Z,27.90
2022-08-09T07:19:55.611Z,28.30
2022-08-09T07:29:59.823Z,28.30
2022-08-09T07:40:06.555Z,28.10
2022-08-09T07:50:11.695Z,28.30
2022-08-09T08:00:20.537Z,28.70
2022-08-09T08:10:39.899Z,29.50
2022-08-09T08:21:05.246Z,29.20
2022-08-09T08:31:15.042Z,28.80
2022-08-09T08:41:21.253Z,29.00
2022-08-09T08:51:25.731Z,29.30
2022-08-09T09:01:35.387Z,29.30
2022-08-09T09:11:49.628Z,29.20
2022-08-09T09:22:03.951Z,29.60
2022-08-09T09:32:15.442Z,29.90
2022-08-09T09:42:26.694Z,30.30
2022-08-09T09:52:52.485Z,30.10
2022-08-09T10:02:56.043Z,30.40
2022-08-09T10:12:59.882Z,30.60
2022-08-09T10:23:20.022Z,30.50
2022-08-09T10:34:04.327Z,30.60
2022-08-09T10:44:01.254Z,31.50
2022-08-09T10:54:10.002Z,32.00
2022-08-09T11:04:30.141Z,32.10
2022-08-09T11:14:38.379Z,32.50
2022-08-09T11:25:09.764Z,32.10
2022-08-09T11:35:25.030Z,33.60
2022-08-09T11:45:43.444Z,33.10
2022-08-09T11:55:53.889Z,33.50
2022-08-09T12:06:16.013Z,34.20
2022-08-09T12:16:25.639Z,34.70
2022-08-09T12:26:44.802Z,35.00
2022-08-09T12:37:23.519Z,35.70
2022-08-09T12:47:25.509Z,34.90
2022-08-09T12:57:40.140Z,36.10
2022-08-09T13:07:50.937Z,35.60
2022-08-09T13:18:05.768Z,36.50
2022-08-09T13:28:19.015Z,35.80
2022-08-09T13:38:55.072Z,35.60
2022-08-09T13:49:04.413Z,35.80
2022-08-09T13:59:09.099Z,35.10
2022-08-09T14:09:14.278Z,35.00
2022-08-09T14:19:20.433Z,35.40
2022-08-09T14:30:34.905Z,35.70
2022-08-09T14:39:49.806Z,36.00
2022-08-09T14:50:01.869Z,36.90
2022-08-09T15:00:07.532Z,37.10
2022-08-09T15:10:14.329Z,35.90
2022-08-09T15:21:56.530Z,35.90
2022-08-09T15:30:58.820Z,35.70
2022-08-09T15:41:09.526Z,35.40
2022-08-09T15:51:30.267Z,33.70
2022-08-09T16:01:38.970Z,32.90
2022-08-09T16:11:50.311Z,32.30
2022-08-09T16:21:56.378Z,32.00
2022-08-09T16:32:19.836Z,31.50
2022-08-09T16:42:25.549Z,31.50
2022-08-09T16:52:32.306Z,31.40
2022-08-09T17:02:39.228Z,31.20
2022-08-09T17:12:47.795Z,31.30
2022-08-09T17:22:53.271Z,31.10
2022-08-09T17:33:01.313Z,30.60
2022-08-09T17:43:32.069Z,30.20
2022-08-09T17:53:34.356Z,30.10
2022-08-09T18:03:47.539Z,30.20
2022-08-09T18:14:00.571Z,30.10
2022-08-09T18:24:10.417Z,30.10
2022-08-09T18:34:18.168Z,29.90
2022-08-09T18:44:27.604Z,29.60
2022-08-09T18:54:32.957Z,29.30
2022-08-09T19:04:36.737Z,29.00
2022-08-09T19:14:43.483Z,28.70
2022-08-09T19:25:11.557Z,28.70
2022-08-09T19:35:13.041Z,28.70
2022-08-09T19:45:18.658Z,28.70
2022-08-09T19:55:52.982Z,28.70
2022-08-09T20:05:50.565Z,28.50
2022-08-09T20:16:38.340Z,28.60
2022-08-09T20:26:19.819Z,28.50
2022-08-09T20:36:27.157Z,28.40
2022-08-09T20:46:42.309Z,28.30
2022-08-09T20:56:49.669Z,28.40
2022-08-09T21:06:57.215Z,28.40
2022-08-09T21:17:02.473Z,28.30
2022-08-09T21:28:00.944Z,28.30
2022-08-09T21:37:59.939Z,28.10
2022-08-09T21:48:04.437Z,27.80
2022-08-09T21:58:13.225Z,27.70
2022-08-09T22:08:17.183Z,27.60
2022-08-09T22:18:23.997Z,27.50
2022-08-09T22:28:34.767Z,27.70
2022-08-09T22:38:41.663Z,27.50
2022-08-09T22:48:50.424Z,27.60
2022-08-09T22:58:56.975Z,27.60
2022-08-09T23:09:01.266Z,27.70
2022-08-09T23:19:06.574Z,27.50
2022-08-09T23:29:14.067Z,27.50
2022-08-09T23:39:19.407Z,27.30
2022-08-09T23:49:24.730Z,27.30
2022-08-09T23:59:50.666Z,27.00
